createdAt,value
2018-09-08T00:01:01.214Z,100362.13
2018-09-08T00:03:31.306Z,100367.33
2018-09-08T00:06:23.595Z,100368.09
2018-09-08T00:08:52.427Z,100369.54
2018-09-08T00:11:21.231Z,100366.08
2018-09-08T00:13:51.468Z,100374.33
2018-09-08T00:16:25.881Z,100378.47
2018-09-08T00:19:02.595Z,100374.48
2018-09-08T00:21:36.359Z,100379.86
2018-09-08T00:24:11.631Z,100381.72
2018-09-08T00:26:41.476Z,100373.38
2018-09-08T00:29:21.652Z,100391.44
2018-09-08T00:31:50.602Z,100386.67
2018-09-08T00:34:19.948Z,100394.24
2018-09-08T00:36:50.327Z,100390.44
2018-09-08T00:39:20.064Z,100396.45
2018-09-08T00:41:49.744Z,100398.64
2018-09-08T00:44:31.945Z,100400.41
2018-09-08T00:47:00.700Z,100400.91
2018-09-08T00:49:29.646Z,100401.33
2018-09-08T00:52:01.082Z,100409.83
2018-09-08T00:54:30.908Z,100412.95
2018-09-08T00:57:01.080Z,100418.92
2018-09-08T00:59:30.715Z,100419.77
2018-09-08T01:02:01.864Z,100423.84
2018-09-08T01:04:30.692Z,100428.48
2018-09-08T01:06:59.676Z,100428.78
2018-09-08T01:09:28.946Z,100424.27
2018-09-08T01:11:59.774Z,100428.06
2018-09-08T01:17:43.840Z,100424.63
2018-09-08T01:20:12.231Z,100427.97
2018-09-08T01:22:41.222Z,100438.55
2018-09-08T01:25:10.186Z,100430.58
2018-09-08T01:27:39.215Z,100441.73
2018-09-08T01:30:10.539Z,100437.70
2018-09-08T01:32:39.384Z,100440.09
2018-09-08T01:35:08.368Z,100444.03
2018-09-08T01:37:38.715Z,100437.89
2018-09-08T01:40:09.075Z,100442.53
2018-09-08T01:42:40.036Z,100438.98
2018-09-08T01:45:18.546Z,100436.67
2018-09-08T01:47:49.512Z,100436.13
2018-09-08T01:50:19.078Z,100442.10
2018-09-08T01:52:49.420Z,100437.91
2018-09-08T01:55:20.830Z,100445.82
2018-09-08T01:57:51.742Z,100443.42
2018-09-08T02:00:20.699Z,100443.42
2018-09-08T02:02:49.219Z,100443.91
2018-09-08T02:05:17.675Z,100443.58
2018-09-08T02:07:46.219Z,100447.62
2018-09-08T02:10:15.048Z,100447.60
2018-09-08T02:12:43.810Z,100448.88
2018-09-08T02:15:12.715Z,100454.70
2018-09-08T02:17:41.268Z,100450.28
2018-09-08T02:20:10.778Z,100452.75
2018-09-08T02:22:39.461Z,100453.12
2018-09-08T02:25:08.204Z,100451.77
2018-09-08T02:27:36.683Z,100452.27
2018-09-08T02:30:06.765Z,100462.69
2018-09-08T02:32:35.419Z,100459.66
2018-09-08T02:35:04.452Z,100464.31
2018-09-08T02:37:32.860Z,100465.83
2018-09-08T02:40:02.027Z,100468.11
2018-09-08T02:42:30.899Z,100474.82
2018-09-08T02:44:59.483Z,100469.05
2018-09-08T02:47:28.013Z,100469.75
2018-09-08T02:50:07.757Z,100473.48
2018-09-08T02:52:35.050Z,100479.28
2018-09-08T02:55:22.232Z,100478.61
2018-09-08T02:57:49.508Z,100480.41
2018-09-08T03:00:16.791Z,100483.66
2018-09-08T03:02:44.241Z,100483.16
2018-09-08T03:05:11.534Z,100481.96
2018-09-08T03:07:38.788Z,100487.81
2018-09-08T03:10:06.052Z,100481.49
2018-09-08T03:12:33.354Z,100486.81
2018-09-08T03:15:00.608Z,100491.72
2018-09-08T03:17:27.887Z,100495.61
2018-09-08T03:19:55.240Z,100493.92
2018-09-08T03:22:22.728Z,100493.04
2018-09-08T03:24:50.141Z,100504.12
2018-09-08T03:27:18.261Z,100502.78
2018-09-08T03:29:46.392Z,100505.49
2018-09-08T03:32:14.150Z,100506.79
2018-09-08T03:34:41.410Z,100504.42
2018-09-08T03:37:08.843Z,100509.64
2018-09-08T03:39:36.154Z,100515.00
2018-09-08T03:42:03.604Z,100521.64
2018-09-08T03:59:12.681Z,100535.85
2018-09-08T04:01:40.439Z,100538.72
2018-09-08T04:04:08.894Z,100542.67
2018-09-08T04:06:39.767Z,100546.25
2018-09-08T04:09:10.156Z,100544.75
2018-09-08T04:11:39.250Z,100545.35
2018-09-08T04:14:08.389Z,100548.08
2018-09-08T04:16:46.379Z,100541.27
2018-09-08T04:19:14.988Z,100540.92
2018-09-08T04:21:44.671Z,100538.00
2018-09-08T04:24:14.184Z,100547.00
2018-09-08T04:35:20.215Z,100563.43
2018-09-08T04:37:48.716Z,100561.53
2018-09-08T04:40:17.474Z,100566.28
2018-09-08T04:42:46.060Z,100563.06
2018-09-08T04:45:14.618Z,100569.81
2018-09-08T04:47:43.054Z,100572.59
2018-09-08T04:50:11.561Z,100571.42
2018-09-08T04:52:40.006Z,100580.58
2018-09-08T04:55:17.812Z,100577.17
2018-09-08T04:57:46.244Z,100581.98
2018-09-08T05:00:16.180Z,100576.52
2018-09-08T05:02:44.842Z,100581.87
2018-09-08T05:05:13.882Z,100586.42
2018-09-08T05:07:42.352Z,100583.61
2018-09-08T05:10:10.827Z,100588.24
2018-09-08T05:12:39.410Z,100589.58
2018-09-08T05:15:17.288Z,100588.29
2018-09-08T05:17:45.777Z,100591.69
2018-09-08T05:20:14.526Z,100596.19
2018-09-08T05:22:43.624Z,100591.84
2018-09-08T05:25:14.148Z,100599.64
2018-09-08T05:27:43.543Z,100603.47
2018-09-08T05:30:12.275Z,100602.07
2018-09-08T05:32:40.802Z,100601.62
2018-09-08T05:35:22.918Z,100602.91
2018-09-08T05:37:51.770Z,100609.55
2018-09-08T05:40:20.938Z,100608.14
2018-09-08T05:42:50.020Z,100609.44
2018-09-08T05:45:18.628Z,100614.09
2018-09-08T05:47:47.324Z,100616.94
2018-09-08T05:50:15.895Z,100624.97
2018-09-08T05:52:46.358Z,100624.22
2018-09-08T05:55:15.025Z,100635.94
2018-09-08T05:57:43.865Z,100634.78
2018-09-08T06:00:13.418Z,100630.70
2018-09-08T06:02:43.552Z,100634.62
2018-09-08T06:05:25.747Z,100638.64
2018-09-08T06:07:54.276Z,100643.87
2018-09-08T06:10:24.093Z,100644.41
2018-09-08T06:12:53.547Z,100651.18
2018-09-08T06:15:22.340Z,100647.44
2018-09-08T06:17:51.504Z,100652.23
2018-09-08T06:20:20.017Z,100656.58
2018-09-08T06:22:48.573Z,100657.41
2018-09-08T06:25:17.088Z,100653.11
2018-09-08T06:27:45.622Z,100654.98
2018-09-08T06:30:14.243Z,100654.14
2018-09-08T06:32:42.725Z,100651.65
2018-09-08T06:35:11.291Z,100657.85
2018-09-08T06:37:40.062Z,100664.13
2018-09-08T06:40:08.568Z,100661.56
2018-09-08T06:42:37.098Z,100658.57
2018-09-08T06:45:06.149Z,100662.47
2018-09-08T06:47:34.648Z,100669.16
2018-09-08T06:50:03.533Z,100678.12
2018-09-08T06:52:32.249Z,100681.11
2018-09-08T06:55:01.032Z,100678.95
2018-09-08T06:57:29.642Z,100674.67
2018-09-08T06:59:59.092Z,100676.00
2018-09-08T07:02:27.757Z,100673.56
2018-09-08T07:04:56.400Z,100674.14
2018-09-08T07:07:25.060Z,100683.47
2018-09-08T07:09:53.696Z,100689.91
2018-09-08T07:12:22.408Z,100679.66
2018-09-08T07:14:51.309Z,100671.73
2018-09-08T07:17:20.279Z,100683.75
2018-09-08T07:19:48.892Z,100687.64
2018-09-08T07:22:20.504Z,100682.89
2018-09-08T07:24:49.114Z,100684.36
2018-09-08T07:27:21.281Z,100684.87
2018-09-08T07:29:49.899Z,100693.30
2018-09-08T07:32:18.933Z,100683.06
2018-09-08T07:34:47.542Z,100686.46
2018-09-08T07:37:16.465Z,100695.73
2018-09-08T07:39:47.711Z,100691.00
2018-09-08T07:42:17.028Z,100688.07
2018-09-08T07:44:50.866Z,100691.78
2018-09-08T07:47:19.769Z,100696.12
2018-09-08T07:49:49.375Z,100698.56
2018-09-08T07:52:19.274Z,100695.34
2018-09-08T07:54:48.167Z,100690.44
2018-09-08T07:57:17.427Z,100694.22
2018-09-08T07:59:46.248Z,100698.92
2018-09-08T08:02:17.323Z,100709.59
2018-09-08T08:04:46.539Z,100701.34
2018-09-08T08:07:16.098Z,100696.16
2018-09-08T08:09:46.196Z,100694.47
2018-09-08T08:12:14.969Z,100700.89
2018-09-08T08:14:49.186Z,100704.33
2018-09-08T08:17:18.030Z,100705.73
2018-09-08T08:19:46.461Z,100699.27
2018-09-08T08:22:15.157Z,100713.91
2018-09-08T08:24:49.748Z,100715.70
2018-09-08T08:27:19.149Z,100713.55
2018-09-08T08:29:47.641Z,100702.09
2018-09-08T08:32:16.289Z,100707.86
2018-09-08T08:34:44.991Z,100708.34
2018-09-08T08:37:13.685Z,100708.77
2018-09-08T08:39:42.062Z,100712.66
2018-09-08T08:42:10.741Z,100713.13
2018-09-08T08:44:44.356Z,100715.03
2018-09-08T08:47:12.932Z,100715.61
2018-09-08T08:49:41.463Z,100715.23
2018-09-08T08:52:21.157Z,100719.61
2018-09-08T08:54:53.491Z,100718.11
2018-09-08T08:57:22.086Z,100711.27
2018-09-08T08:59:50.545Z,100707.95
2018-09-08T09:02:18.955Z,100715.33
2018-09-08T09:04:56.873Z,100718.34
2018-09-08T09:07:25.418Z,100716.66
2018-09-08T09:09:53.899Z,100720.11
2018-09-08T09:12:23.885Z,100720.73
2018-09-08T09:14:53.008Z,100710.08
2018-09-08T09:17:21.513Z,100703.31
2018-09-08T09:20:01.142Z,100716.06
2018-09-08T09:22:40.765Z,100713.77
2018-09-08T09:25:10.801Z,100718.17
2018-09-08T09:27:41.180Z,100711.77
2018-09-08T09:30:10.616Z,100711.65
2018-09-08T09:32:39.201Z,100706.46
2018-09-08T09:35:10.213Z,100706.46
2018-09-08T09:37:39.508Z,100709.52
2018-09-08T09:40:09.733Z,100701.07
2018-09-08T09:42:38.187Z,100703.62
2018-09-08T09:45:07.335Z,100705.20
2018-09-08T09:47:35.827Z,100699.84
2018-09-08T09:50:04.569Z,100696.34
2018-09-08T09:52:33.183Z,100695.23
2018-09-08T09:55:01.699Z,100695.27
2018-09-08T09:57:31.279Z,100696.95
2018-09-08T09:59:59.869Z,100688.30
2018-09-08T10:02:39.470Z,100687.38
2018-09-08T10:05:10.618Z,100690.48
2018-09-08T10:07:39.344Z,100689.39
2018-09-08T10:10:09.253Z,100696.55
2018-09-08T10:12:37.854Z,100703.89
2018-09-08T10:15:06.809Z,100690.95
2018-09-08T10:17:35.316Z,100691.44
2018-09-08T10:20:03.933Z,100687.25
2018-09-08T10:22:32.392Z,100684.45
2018-09-08T10:25:00.877Z,100687.13
2018-09-08T10:27:29.369Z,100682.56
2018-09-08T10:29:58.631Z,100684.63
2018-09-08T10:32:26.909Z,100684.45
2018-09-08T10:34:55.354Z,100676.11
2018-09-08T10:37:26.975Z,100687.73
2018-09-08T10:39:57.505Z,100685.18
2018-09-08T10:42:27.079Z,100674.66
2018-09-08T10:44:55.967Z,100679.18
2018-09-08T10:47:24.617Z,100679.61
2018-09-08T10:49:53.057Z,100672.80
2018-09-08T10:52:27.819Z,100675.50
2018-09-08T10:54:57.881Z,100678.17
2018-09-08T10:57:30.315Z,100677.75
2018-09-08T10:59:59.554Z,100677.80
2018-09-08T11:02:27.573Z,100682.62
2018-09-08T11:04:55.343Z,100676.65
2018-09-08T11:07:23.473Z,100681.08
2018-09-08T11:09:51.189Z,100675.61
2018-09-08T11:12:19.001Z,100676.33
2018-09-08T11:14:46.711Z,100674.25
2018-09-08T11:17:15.332Z,100677.95
2018-09-08T11:19:44.380Z,100679.48
2018-09-08T11:22:12.149Z,100675.64
2018-09-08T11:24:39.957Z,100674.50
2018-09-08T11:27:07.662Z,100667.36
2018-09-08T11:29:35.437Z,100667.25
2018-09-08T11:32:03.857Z,100669.95
2018-09-08T11:34:31.972Z,100668.63
2018-09-08T11:36:59.664Z,100669.06
2018-09-08T11:39:27.425Z,100657.36
2018-09-08T11:41:55.560Z,100651.79
2018-09-08T11:44:23.295Z,100655.16
2018-09-08T11:46:56.198Z,100653.33
2018-09-08T11:49:23.920Z,100662.04
2018-09-08T11:51:52.118Z,100661.04
2018-09-08T11:54:19.842Z,100659.17
2018-09-08T11:56:47.722Z,100658.22
2018-09-08T11:59:15.436Z,100652.50
2018-09-08T12:01:43.309Z,100651.64
2018-09-08T12:04:11.013Z,100646.25
2018-09-08T12:06:38.817Z,100657.61
2018-09-08T12:09:07.649Z,100654.31
2018-09-08T12:11:35.825Z,100654.33
2018-09-08T12:14:03.719Z,100652.91
2018-09-08T12:16:31.559Z,100650.94
2018-09-08T12:18:59.368Z,100646.48
2018-09-08T12:21:28.248Z,100653.58
2018-09-08T12:23:56.028Z,100651.70
2018-09-08T12:26:23.751Z,100650.66
2018-09-08T12:28:51.495Z,100641.42
2018-09-08T12:31:19.185Z,100644.86
2018-09-08T12:33:46.827Z,100645.49
2018-09-08T12:36:14.591Z,100639.60
2018-09-08T12:38:42.310Z,100644.05
2018-09-08T12:41:10.123Z,100642.37
2018-09-08T12:43:37.912Z,100639.39
2018-09-08T12:46:05.770Z,100632.36
2018-09-08T12:48:33.381Z,100635.57
2018-09-08T12:51:01.113Z,100630.91
2018-09-08T12:53:29.000Z,100629.34
2018-09-08T12:55:56.757Z,100632.00
2018-09-08T12:58:24.481Z,100631.20
2018-09-08T13:00:52.786Z,100642.81
2018-09-08T13:03:22.835Z,100633.83
2018-09-08T13:06:00.195Z,100628.52
2018-09-08T13:08:28.176Z,100619.16
2018-09-08T13:10:56.038Z,100622.52
2018-09-08T13:13:23.971Z,100612.61
2018-09-08T13:15:52.726Z,100620.63
2018-09-08T13:18:20.705Z,100611.47
2018-09-08T13:20:49.589Z,100612.23
2018-09-08T13:23:18.505Z,100609.98
2018-09-08T13:25:46.311Z,100609.28
2018-09-08T13:28:14.030Z,100610.02
2018-09-08T13:30:41.834Z,100599.22
2018-09-08T13:33:09.558Z,100595.93
2018-09-08T13:35:37.366Z,100593.94
2018-09-08T13:38:05.058Z,100588.98
2018-09-08T13:40:32.710Z,100594.68
2018-09-08T13:43:00.644Z,100597.65
2018-09-08T13:45:28.309Z,100601.88
2018-09-08T13:47:56.018Z,100600.73
2018-09-08T13:50:23.647Z,100602.09
2018-09-08T13:52:51.473Z,100599.05
2018-09-08T13:55:19.133Z,100597.53
2018-09-08T13:57:46.817Z,100598.58
2018-09-08T14:00:14.606Z,100595.03
2018-09-08T14:02:42.250Z,100599.33
2018-09-08T14:05:10.079Z,100596.49
2018-09-08T14:07:41.989Z,100594.05
2018-09-08T14:10:09.700Z,100591.61
2018-09-08T14:12:37.438Z,100582.34
2018-09-08T14:15:05.558Z,100590.37
2018-09-08T14:17:33.961Z,100583.61
2018-09-08T14:20:01.826Z,100585.84
2018-09-08T14:22:29.538Z,100582.95
2018-09-08T14:24:57.224Z,100582.46
2018-09-08T14:27:25.014Z,100581.34
2018-09-08T14:29:52.716Z,100575.39
2018-09-08T14:32:20.653Z,100572.97
2018-09-08T14:34:48.422Z,100572.26
2018-09-08T14:37:16.192Z,100576.73
2018-09-08T14:39:44.087Z,100578.41
2018-09-08T14:42:11.717Z,100566.98
2018-09-08T14:44:39.527Z,100559.98
2018-09-08T14:47:07.258Z,100571.30
2018-09-08T14:49:49.661Z,100570.89
2018-09-08T14:52:17.407Z,100565.67
2018-09-08T14:54:45.179Z,100565.03
2018-09-08T14:57:12.970Z,100573.55
2018-09-08T14:59:40.694Z,100578.20
2018-09-08T15:02:08.435Z,100583.11
2018-09-08T15:04:36.258Z,100576.55
2018-09-08T15:07:04.033Z,100574.12
2018-09-08T15:09:31.715Z,100572.05
2018-09-08T15:11:59.419Z,100573.09
2018-09-08T15:14:27.147Z,100560.95
2018-09-08T15:16:54.941Z,100557.29
2018-09-08T15:19:22.636Z,100557.69
2018-09-08T15:21:51.232Z,100555.48
2018-09-08T15:24:19.896Z,100551.13
2018-09-08T15:26:48.529Z,100535.52
2018-09-08T15:29:17.006Z,100544.46
2018-09-08T15:31:46.602Z,100542.44
2018-09-08T15:34:15.049Z,100542.30
2018-09-08T15:36:43.685Z,100539.59
2018-09-08T15:39:12.122Z,100546.28
2018-09-08T15:41:40.993Z,100553.41
2018-09-08T15:44:09.621Z,100556.47
2018-09-08T15:46:38.172Z,100547.90
2018-09-08T15:49:06.955Z,100550.83
2018-09-08T15:51:35.607Z,100539.13
2018-09-08T15:54:04.129Z,100539.91
2018-09-08T15:56:32.696Z,100538.64
2018-09-08T15:59:01.323Z,100534.84
2018-09-08T16:01:29.773Z,100532.63
2018-09-08T16:03:58.360Z,100537.95
2018-09-08T16:06:26.926Z,100536.31
2018-09-08T16:08:55.380Z,100532.94
2018-09-08T16:11:24.973Z,100527.10
2018-09-08T16:13:53.565Z,100533.64
2018-09-08T16:16:22.197Z,100538.42
2018-09-08T16:18:50.701Z,100542.25
2018-09-08T16:21:19.341Z,100544.03
2018-09-08T16:23:47.917Z,100542.25
2018-09-08T16:26:16.459Z,100540.03
2018-09-08T16:28:45.171Z,100536.97
2018-09-08T16:31:13.776Z,100543.29
2018-09-08T16:33:42.584Z,100535.17
2018-09-08T16:36:11.266Z,100538.45
2018-09-08T16:38:39.838Z,100541.58
2018-09-08T16:41:08.529Z,100531.23
2018-09-08T16:43:37.146Z,100530.14
2018-09-08T16:46:06.466Z,100533.02
2018-09-08T16:48:35.057Z,100526.05
2018-09-08T16:51:03.577Z,100536.08
2018-09-08T16:53:32.485Z,100532.37
2018-09-08T16:56:01.156Z,100538.14
2018-09-08T16:58:29.661Z,100539.05
2018-09-08T17:00:58.198Z,100542.00
2018-09-08T17:03:26.697Z,100549.13
2018-09-08T17:05:55.269Z,100544.16
2018-09-08T17:08:25.951Z,100549.70
2018-09-08T17:10:57.484Z,100542.96
2018-09-08T17:13:26.047Z,100538.03
2018-09-08T17:15:54.684Z,100543.91
2018-09-08T17:18:26.299Z,100542.81
2018-09-08T17:20:54.771Z,100543.71
2018-09-08T17:23:23.991Z,100536.17
2018-09-08T17:25:52.694Z,100541.13
2018-09-08T17:28:21.395Z,100538.13
2018-09-08T17:30:49.814Z,100542.75
2018-09-08T17:33:18.414Z,100538.64
2018-09-08T17:35:46.921Z,100541.70
2018-09-08T17:38:15.408Z,100542.05
2018-09-08T17:40:43.979Z,100546.64
2018-09-08T17:43:13.315Z,100540.59
2018-09-08T17:45:41.761Z,100536.88
2018-09-08T17:48:10.241Z,100542.61
2018-09-08T17:50:38.800Z,100548.13
2018-09-08T17:53:07.739Z,100543.88
2018-09-08T17:55:36.295Z,100542.08
2018-09-08T17:58:04.815Z,100544.67
2018-09-08T18:00:33.383Z,100550.42
2018-09-08T18:03:02.797Z,100552.47
2018-09-08T18:05:31.663Z,100553.71
2018-09-08T18:08:00.814Z,100559.23
2018-09-08T18:10:29.545Z,100567.09
2018-09-08T18:12:58.097Z,100572.61
2018-09-08T18:15:26.671Z,100573.19
2018-09-08T18:17:55.238Z,100580.30
2018-09-08T18:20:23.732Z,100580.61
2018-09-08T18:22:52.496Z,100591.77
2018-09-08T18:25:21.157Z,100577.94
2018-09-08T18:27:49.646Z,100581.77
2018-09-08T18:30:18.275Z,100590.22
2018-09-08T18:32:46.871Z,100585.24
2018-09-08T18:35:15.349Z,100585.81
2018-09-08T18:37:44.462Z,100590.33
2018-09-08T18:40:12.932Z,100587.05
2018-09-08T18:42:41.406Z,100595.61
2018-09-08T18:45:09.890Z,100591.67
2018-09-08T18:47:38.515Z,100593.14
2018-09-08T18:50:08.079Z,100599.89
2018-09-08T18:52:36.600Z,100609.23
2018-09-08T18:55:05.368Z,100609.70
2018-09-08T18:57:33.937Z,100602.48
2018-09-08T19:00:05.797Z,100609.12
2018-09-08T19:02:35.455Z,100606.09
2018-09-08T19:05:04.026Z,100607.67
2018-09-08T19:07:32.870Z,100609.47
2018-09-08T19:10:06.377Z,100611.94
2018-09-08T19:12:36.181Z,100615.20
2018-09-08T19:15:10.106Z,100608.80
2018-09-08T19:17:38.659Z,100609.69
2018-09-08T19:20:12.761Z,100612.62
2018-09-08T19:22:41.293Z,100618.45
2018-09-08T19:25:09.710Z,100618.92
2018-09-08T19:27:38.503Z,100623.20
2018-09-08T19:30:07.254Z,100622.72
2018-09-08T19:32:35.811Z,100623.63
2018-09-08T19:35:10.630Z,100629.36
2018-09-08T19:37:39.273Z,100631.95
2018-09-08T19:40:13.165Z,100642.05
2018-09-08T19:42:41.730Z,100645.09
2018-09-08T19:45:10.444Z,100640.27
2018-09-08T19:48:42.759Z,100645.44
2018-09-08T19:51:11.707Z,100648.78
2018-09-08T19:53:45.758Z,100652.23
2018-09-08T19:56:14.462Z,100647.96
2018-09-08T19:58:48.183Z,100652.11
2018-09-08T20:01:17.396Z,100646.23
2018-09-08T20:03:48.751Z,100651.19
2018-09-08T20:06:22.166Z,100654.53
2018-09-08T20:08:53.536Z,100654.86
2018-09-08T20:11:22.846Z,100656.99
2018-09-08T20:13:51.885Z,100654.97
2018-09-08T20:16:21.108Z,100656.96
2018-09-08T20:18:49.678Z,100657.73
2018-09-08T20:21:18.513Z,100657.84
2018-09-08T20:23:49.077Z,100660.97
2018-09-08T20:26:17.792Z,100655.11
2018-09-08T20:28:46.423Z,100658.91
2018-09-08T20:31:15.738Z,100652.27
2018-09-08T20:33:44.450Z,100652.04
2018-09-08T20:36:12.980Z,100654.63
2018-09-08T20:38:41.493Z,100642.94
2018-09-08T20:41:10.248Z,100640.81
2018-09-08T20:43:38.846Z,100642.70
2018-09-08T20:46:07.586Z,100645.29
2018-09-08T20:48:36.146Z,100639.36
2018-09-08T20:51:04.703Z,100640.81
2018-09-08T20:53:33.477Z,100634.17
2018-09-08T20:56:02.056Z,100630.39
2018-09-08T20:58:30.820Z,100630.66
2018-09-08T21:00:59.357Z,100627.42
2018-09-08T21:03:27.916Z,100620.13
2018-09-08T21:05:56.585Z,100627.78
2018-09-08T21:08:25.152Z,100624.74
2018-09-08T21:10:54.300Z,100627.56
2018-09-08T21:13:27.357Z,100629.94
2018-09-08T21:15:57.154Z,100631.59
2018-09-08T21:18:25.671Z,100633.36
2018-09-08T21:20:54.755Z,100627.77
2018-09-08T21:23:23.341Z,100629.98
2018-09-08T21:25:52.810Z,100638.81
2018-09-08T21:28:21.545Z,100641.67
2018-09-08T21:30:50.427Z,100646.59
2018-09-08T21:33:18.971Z,100651.73
2018-09-08T21:35:47.918Z,100654.62
2018-09-08T21:38:16.578Z,100650.67
2018-09-08T21:40:46.084Z,100654.43
2018-09-08T21:43:14.555Z,100659.97
2018-09-08T21:45:43.120Z,100660.88
2018-09-08T21:48:11.576Z,100659.53
2018-09-08T21:50:40.142Z,100658.28
2018-09-08T21:53:08.623Z,100663.34
2018-09-08T21:55:37.750Z,100656.98
2018-09-08T21:58:07.154Z,100644.72
2018-09-08T22:00:35.741Z,100641.34
2018-09-08T22:03:04.379Z,100625.59
2018-09-08T22:05:33.104Z,100630.75
2018-09-08T22:08:02.072Z,100625.22
2018-09-08T22:10:30.635Z,100632.00
2018-09-08T22:12:59.450Z,100636.47
2018-09-08T22:15:28.139Z,100632.43
2018-09-08T22:17:56.782Z,100627.85
2018-09-08T22:20:25.564Z,100627.28
2018-09-08T22:22:54.339Z,100630.12
2018-09-08T22:25:23.050Z,100630.02
2018-09-08T22:27:51.666Z,100632.81
2018-09-08T22:30:20.420Z,100641.41
2018-09-08T22:32:49.338Z,100645.07
2018-09-08T22:35:19.046Z,100641.99
2018-09-08T22:37:47.593Z,100641.60
2018-09-08T22:40:16.110Z,100641.60
2018-09-08T22:42:45.190Z,100638.09
2018-09-08T22:45:14.766Z,100647.03
2018-09-08T22:47:46.476Z,100645.39
2018-09-08T22:50:15.950Z,100640.98
2018-09-08T22:52:46.686Z,100648.83
2018-09-08T22:55:15.869Z,100646.14
2018-09-08T22:57:44.814Z,100655.23
2018-09-08T23:00:13.558Z,100657.27
2018-09-08T23:02:42.243Z,100658.25
2018-09-08T23:05:20.143Z,100674.02
2018-09-08T23:07:48.641Z,100671.48
2018-09-08T23:10:18.013Z,100667.53
2018-09-08T23:12:48.340Z,100666.12
2018-09-08T23:15:19.087Z,100661.54
2018-09-08T23:17:48.082Z,100657.59
2018-09-08T23:20:16.642Z,100659.87
2018-09-08T23:22:47.603Z,100658.94
2018-09-08T23:25:18.435Z,100652.05
2018-09-08T23:27:48.844Z,100656.27
2018-09-08T23:30:17.362Z,100661.98
2018-09-08T23:32:45.872Z,100662.22
2018-09-08T23:35:14.448Z,100662.07
2018-09-08T23:37:42.981Z,100667.53
2018-09-08T23:40:11.421Z,100652.73
2018-09-08T23:42:39.972Z,100654.41
2018-09-08T23:48:05.915Z,100661.91
2018-09-08T23:50:36.038Z,100669.98
2018-09-08T23:53:04.405Z,100660.50
2018-09-08T23:55:33.119Z,100651.73
2018-09-08T23:58:02.091Z,100654.84
